sensor_id;sensor_type;location;lat;lon;timestamp;pressure;altitude;pressure_sealevel;temperature;humidity
50103;BME280;35993;52.604;10.078;2023-04-28T00:02:06;101345.69;;;5.74;75.43
50103;BME280;35993;52.604;10.078;2023-04-28T00:04:32;101342.97;;;5.74;75.69
50103;BME280;35993;52.604;10.078;2023-04-28T00:06:58;101346.38;;;5.76;75.80
50103;BME280;35993;52.604;10.078;2023-04-28T00:09:23;101339.75;;;5.87;75.13
50103;BME280;35993;52.604;10.078;2023-04-28T00:11:49;101346.50;;;5.83;75.30
50103;BME280;35993;52.604;10.078;2023-04-28T00:14:15;101336.41;;;5.85;75.06
50103;BME280;35993;52.604;10.078;2023-04-28T00:16:41;101333.56;;;5.78;75.22
50103;BME280;35993;52.604;10.078;2023-04-28T00:19:06;101322.13;;;5.68;75.05
50103;BME280;35993;52.604;10.078;2023-04-28T00:21:32;101329.03;;;5.62;74.89
50103;BME280;35993;52.604;10.078;2023-04-28T00:23:58;101328.19;;;5.70;74.64
50103;BME280;35993;52.604;10.078;2023-04-28T00:26:24;101323.78;;;5.69;74.56
50103;BME280;35993;52.604;10.078;2023-04-28T00:28:50;101321.81;;;5.63;74.48
50103;BME280;35993;52.604;10.078;2023-04-28T00:31:16;101318.09;;;5.55;75.04
50103;BME280;35993;52.604;10.078;2023-04-28T00:33:43;101319.59;;;5.58;74.60
50103;BME280;35993;52.604;10.078;2023-04-28T00:36:09;101315.06;;;5.58;74.40
50103;BME280;35993;52.604;10.078;2023-04-28T00:38:35;101309.00;;;5.65;74.13
50103;BME280;35993;52.604;10.078;2023-04-28T00:41:02;101311.69;;;5.65;74.41
50103;BME280;35993;52.604;10.078;2023-04-28T00:43:28;101303.94;;;5.62;74.14
50103;BME280;35993;52.604;10.078;2023-04-28T00:45:54;101299.75;;;5.59;74.41
50103;BME280;35993;52.604;10.078;2023-04-28T00:48:20;101298.06;;;5.58;74.13
50103;BME280;35993;52.604;10.078;2023-04-28T00:50:47;101291.31;;;5.62;74.58
50103;BME280;35993;52.604;10.078;2023-04-28T00:53:13;101287.44;;;5.65;73.30
50103;BME280;35993;52.604;10.078;2023-04-28T00:55:39;101291.00;;;5.65;73.31
50103;BME280;35993;52.604;10.078;2023-04-28T00:58:06;101278.72;;;5.63;73.38
50103;BME280;35993;52.604;10.078;2023-04-28T01:00:32;101283.56;;;5.67;73.53
50103;BME280;35993;52.604;10.078;2023-04-28T01:02:58;101276.00;;;5.71;73.03
50103;BME280;35993;52.604;10.078;2023-04-28T01:05:26;101269.59;;;5.72;72.91
50103;BME280;35993;52.604;10.078;2023-04-28T01:07:52;101267.22;;;5.69;72.43
50103;BME280;35993;52.604;10.078;2023-04-28T01:10:19;101264.03;;;5.73;72.18
50103;BME280;35993;52.604;10.078;2023-04-28T01:12:46;101264.03;;;5.73;72.29
50103;BME280;35993;52.604;10.078;2023-04-28T01:15:17;101271.09;;;5.74;72.07
50103;BME280;35993;52.604;10.078;2023-04-28T01:17:45;101267.72;;;5.72;72.11
50103;BME280;35993;52.604;10.078;2023-04-28T01:20:12;101262.66;;;5.78;71.61
50103;BME280;35993;52.604;10.078;2023-04-28T01:22:39;101258.78;;;5.80;70.87
50103;BME280;35993;52.604;10.078;2023-04-28T01:25:04;101257.91;;;5.88;70.28
50103;BME280;35993;52.604;10.078;2023-04-28T01:27:30;101256.94;;;5.81;70.71
50103;BME280;35993;52.604;10.078;2023-04-28T01:29:56;101257.78;;;5.81;70.82
50103;BME280;35993;52.604;10.078;2023-04-28T01:32:23;101256.78;;;5.82;70.13
50103;BME280;35993;52.604;10.078;2023-04-28T01:34:49;101255.91;;;5.82;70.42
50103;BME280;35993;52.604;10.078;2023-04-28T01:37:14;101249.56;;;5.74;70.26
50103;BME280;35993;52.604;10.078;2023-04-28T01:39:40;101245.34;;;5.72;70.24
50103;BME280;35993;52.604;10.078;2023-04-28T01:42:06;101243.16;;;5.67;70.38
50103;BME280;35993;52.604;10.078;2023-04-28T01:44:32;101242.84;;;5.62;70.52
50103;BME280;35993;52.604;10.078;2023-04-28T01:46:57;101237.13;;;5.65;70.62
50103;BME280;35993;52.604;10.078;2023-04-28T01:49:23;101235.25;;;5.66;70.29
50103;BME280;35993;52.604;10.078;2023-04-28T01:51:49;101234.56;;;5.64;70.42
50103;BME280;35993;52.604;10.078;2023-04-28T01:54:14;101229.50;;;5.69;70.07
50103;BME280;35993;52.604;10.078;2023-04-28T01:56:40;101229.38;;;5.62;70.39
50103;BME280;35993;52.604;10.078;2023-04-28T01:59:06;101231.88;;;5.64;70.21
50103;BME280;35993;52.604;10.078;2023-04-28T02:01:33;101224.66;;;5.56;70.80
50103;BME280;35993;52.604;10.078;2023-04-28T02:03:59;101223.16;;;5.53;70.73
50103;BME280;35993;52.604;10.078;2023-04-28T02:06:25;101224.16;;;5.52;70.50
50103;BME280;35993;52.604;10.078;2023-04-28T02:08:52;101223.31;;;5.52;70.64
50103;BME280;35993;52.604;10.078;2023-04-28T02:11:18;101216.25;;;5.51;70.74
50103;BME280;35993;52.604;10.078;2023-04-28T02:13:44;101220.47;;;5.45;71.34
50103;BME280;35993;52.604;10.078;2023-04-28T02:16:10;101214.78;;;5.40;71.71
50103;BME280;35993;52.604;10.078;2023-04-28T02:18:36;101220.16;;;5.40;71.97
50103;BME280;35993;52.604;10.078;2023-04-28T02:21:12;101209.72;;;5.37;71.92
50103;BME280;35993;52.604;10.078;2023-04-28T02:23:39;101213.25;;;5.37;72.11
50103;BME280;35993;52.604;10.078;2023-04-28T02:26:05;101225.22;;;5.35;72.75
50103;BME280;35993;52.604;10.078;2023-04-28T02:28:31;101215.28;;;5.27;72.63
50103;BME280;35993;52.604;10.078;2023-04-28T02:31:10;101213.94;;;5.23;72.86
50103;BME280;35993;52.604;10.078;2023-04-28T02:33:37;101207.88;;;5.21;72.95
50103;BME280;35993;52.604;10.078;2023-04-28T02:36:04;101198.31;;;5.18;73.49
50103;BME280;35993;52.604;10.078;2023-04-28T02:38:30;101198.31;;;5.18;73.99
50103;BME280;35993;52.604;10.078;2023-04-28T02:41:00;101182.81;;;5.20;73.50
50103;BME280;35993;52.604;10.078;2023-04-28T02:43:27;101190.88;;;5.20;74.08
50103;BME280;35993;52.604;10.078;2023-04-28T02:45:53;101190.38;;;5.25;73.38
50103;BME280;35993;52.604;10.078;2023-04-28T02:48:27;101181.13;;;5.28;72.80
50103;BME280;35993;52.604;10.078;2023-04-28T02:50:59;101176.06;;;5.33;72.35
50103;BME280;35993;52.604;10.078;2023-04-28T02:53:28;101168.47;;;5.45;71.67
50103;BME280;35993;52.604;10.078;2023-04-28T02:55:56;101162.56;;;5.49;71.57
50103;BME280;35993;52.604;10.078;2023-04-28T02:58:22;101161.22;;;5.53;70.78
50103;BME280;35993;52.604;10.078;2023-04-28T03:00:52;101146.38;;;5.57;70.40
50103;BME280;35993;52.604;10.078;2023-04-28T03:03:20;101145.53;;;5.57;70.16
50103;BME280;35993;52.604;10.078;2023-04-28T03:05:47;101142.16;;;5.63;69.78
50103;BME280;35993;52.604;10.078;2023-04-28T03:08:16;101134.41;;;5.68;68.97
50103;BME280;35993;52.604;10.078;2023-04-28T03:10:42;101127.31;;;5.67;68.41
50103;BME280;35993;52.604;10.078;2023-04-28T03:13:08;101124.31;;;5.70;68.60
50103;BME280;35993;52.604;10.078;2023-04-28T03:15:35;101130.69;;;5.69;68.86
50103;BME280;35993;52.604;10.078;2023-04-28T03:18:02;101121.13;;;5.67;68.45
50103;BME280;35993;52.604;10.078;2023-04-28T03:20:29;101125.31;;;5.69;68.70
50103;BME280;35993;52.604;10.078;2023-04-28T03:22:55;101121.28;;;5.65;68.91
50103;BME280;35993;52.604;10.078;2023-04-28T03:25:22;101125.00;;;5.64;68.89
50103;BME280;35993;52.604;10.078;2023-04-28T03:27:49;101122.25;;;5.72;68.50
50103;BME280;35993;52.604;10.078;2023-04-28T03:30:15;101109.66;;;5.73;68.13
50103;BME280;35993;52.604;10.078;2023-04-28T03:32:41;101108.59;;;5.74;68.22
50103;BME280;35993;52.604;10.078;2023-04-28T03:35:08;101105.25;;;5.72;67.95
50103;BME280;35993;52.604;10.078;2023-04-28T03:37:35;101098.88;;;5.73;68.02
50103;BME280;35993;52.604;10.078;2023-04-28T03:40:02;101100.53;;;5.74;67.47
50103;BME280;35993;52.604;10.078;2023-04-28T03:42:37;101100.69;;;5.72;68.26
50103;BME280;35993;52.604;10.078;2023-04-28T03:45:08;101096.31;;;5.71;68.08
50103;BME280;35993;52.604;10.078;2023-04-28T03:47:34;101089.44;;;5.69;68.51
50103;BME280;35993;52.604;10.078;2023-04-28T03:50:00;101088.25;;;5.71;68.22
50103;BME280;35993;52.604;10.078;2023-04-28T03:52:26;101084.53;;;5.72;68.24
50103;BME280;35993;52.604;10.078;2023-04-28T03:54:52;101086.41;;;5.72;67.87
50103;BME280;35993;52.604;10.078;2023-04-28T03:57:18;101080.72;;;5.67;68.44
50103;BME280;35993;52.604;10.078;2023-04-28T03:59:44;101082.22;;;5.69;68.30
50103;BME280;35993;52.604;10.078;2023-04-28T04:02:11;101080.53;;;5.68;67.85
50103;BME280;35993;52.604;10.078;2023-04-28T04:04:38;101078.00;;;5.67;68.62
50103;BME280;35993;52.604;10.078;2023-04-28T04:07:04;101080.56;;;5.60;68.43
50103;BME280;35993;52.604;10.078;2023-04-28T04:09:29;101078.34;;;5.64;68.21
50103;BME280;35993;52.604;10.078;2023-04-28T04:11:55;101078.03;;;5.58;68.55
50103;BME280;35993;52.604;10.078;2023-04-28T04:14:22;101078.03;;;5.58;69.23
50103;BME280;35993;52.604;10.078;2023-04-28T04:16:48;101077.88;;;5.60;68.87
50103;BME280;35993;52.604;10.078;2023-04-28T04:19:15;101072.31;;;5.62;68.49
50103;BME280;35993;52.604;10.078;2023-04-28T04:21:44;101073.31;;;5.61;69.14
50103;BME280;35993;52.604;10.078;2023-04-28T04:24:11;101068.94;;;5.60;69.47
50103;BME280;35993;52.604;10.078;2023-04-28T04:26:38;101071.31;;;5.54;69.67
50103;BME280;35993;52.604;10.078;2023-04-28T04:29:20;101064.75;;;5.57;69.90
50103;BME280;35993;52.604;10.078;2023-04-28T04:31:47;101060.53;;;5.63;69.54
50103;BME280;35993;52.604;10.078;2023-04-28T04:34:14;101056.66;;;5.65;68.94
50103;BME280;35993;52.604;10.078;2023-04-28T04:36:42;101054.25;;;5.70;68.65
50103;BME280;35993;52.604;10.078;2023-04-28T04:39:13;101049.19;;;5.76;68.34
50103;BME280;35993;52.604;10.078;2023-04-28T04:41:43;101061.50;;;5.70;68.49
50103;BME280;35993;52.604;10.078;2023-04-28T04:44:37;101051.56;;;5.70;68.60
50103;BME280;35993;52.604;10.078;2023-04-28T04:47:08;101044.13;;;5.72;68.78
50103;BME280;35993;52.604;10.078;2023-04-28T04:49:35;101049.00;;;5.77;69.29
50103;BME280;35993;52.604;10.078;2023-04-28T04:52:02;101049.00;;;5.77;69.27
50103;BME280;35993;52.604;10.078;2023-04-28T04:54:30;101049.50;;;5.81;69.61
50103;BME280;35993;52.604;10.078;2023-04-28T04:56:59;101046.06;;;5.87;69.01
50103;BME280;35993;52.604;10.078;2023-04-28T05:00:00;101054.28;;;5.94;69.17
50103;BME280;35993;52.604;10.078;2023-04-28T05:02:37;101042.66;;;5.93;68.60
50103;BME280;35993;52.604;10.078;2023-04-28T05:05:11;101039.63;;;5.96;68.97
50103;BME280;35993;52.604;10.078;2023-04-28T05:07:48;101041.97;;;5.99;68.68
50103;BME280;35993;52.604;10.078;2023-04-28T05:10:23;101037.44;;;6.00;68.64
50103;BME280;35993;52.604;10.078;2023-04-28T05:13:07;101039.09;;;6.01;68.84
50103;BME280;35993;52.604;10.078;2023-04-28T05:15:49;101034.38;;;6.03;68.68
50103;BME280;35993;52.604;10.078;2023-04-28T05:18:30;101041.47;;;6.04;69.42
50103;BME280;35993;52.604;10.078;2023-04-28T05:20:58;101038.06;;;6.10;68.71
50103;BME280;35993;52.604;10.078;2023-04-28T05:23:25;101036.28;;;6.17;69.16
50103;BME280;35993;52.604;10.078;2023-04-28T05:25:51;101032.06;;;6.23;68.66
50103;BME280;35993;52.604;10.078;2023-04-28T05:28:16;101028.16;;;6.26;69.02
50103;BME280;35993;52.604;10.078;2023-04-28T05:30:44;101031.63;;;6.34;69.15
50103;BME280;35993;52.604;10.078;2023-04-28T05:33:12;101027.16;;;6.42;68.74
50103;BME280;35993;52.604;10.078;2023-04-28T05:35:43;101026.69;;;6.61;68.53
50103;BME280;35993;52.604;10.078;2023-04-28T05:38:15;101026.34;;;6.79;67.80
50103;BME280;35993;52.604;10.078;2023-04-28T05:40:43;101019.56;;;6.98;67.40
50103;BME280;35993;52.604;10.078;2023-04-28T05:43:11;101020.38;;;7.14;66.61
50103;BME280;35993;52.604;10.078;2023-04-28T05:45:37;101016.63;;;7.30;66.76
50103;BME280;35993;52.604;10.078;2023-04-28T05:48:03;101022.31;;;7.50;66.66
50103;BME280;35993;52.604;10.078;2023-04-28T05:50:30;101021.09;;;7.52;66.03
50103;BME280;35993;52.604;10.078;2023-04-28T05:52:56;101021.16;;;7.59;66.06
50103;BME280;35993;52.604;10.078;2023-04-28T05:55:23;101015.81;;;7.66;65.47
50103;BME280;35993;52.604;10.078;2023-04-28T05:57:48;101020.72;;;7.77;65.41
50103;BME280;35993;52.604;10.078;2023-04-28T06:00:15;101009.19;;;7.68;64.63
50103;BME280;35993;52.604;10.078;2023-04-28T06:02:41;101014.75;;;7.82;65.38
50103;BME280;35993;52.604;10.078;2023-04-28T06:05:07;101009.69;;;7.94;65.21
50103;BME280;35993;52.604;10.078;2023-04-28T06:07:34;101004.47;;;7.92;64.83
50103;BME280;35993;52.604;10.078;2023-04-28T06:09:59;101003.81;;;7.90;64.84
50103;BME280;35993;52.604;10.078;2023-04-28T06:12:25;100997.59;;;7.90;65.06
50103;BME280;35993;52.604;10.078;2023-04-28T06:14:51;100999.53;;;7.96;64.81
50103;BME280;35993;52.604;10.078;2023-04-28T06:17:20;100992.59;;;8.08;64.82
50103;BME280;35993;52.604;10.078;2023-04-28T06:19:45;100981.41;;;8.18;64.53
50103;BME280;35993;52.604;10.078;2023-04-28T06:22:12;100982.81;;;8.35;64.34
50103;BME280;35993;52.604;10.078;2023-04-28T06:24:38;100976.06;;;8.46;64.15
50103;BME280;35993;52.604;10.078;2023-04-28T06:27:09;100972.38;;;8.54;63.82
50103;BME280;35993;52.604;10.078;2023-04-28T06:29:37;100976.25;;;8.73;63.79
50103;BME280;35993;52.604;10.078;2023-04-28T06:32:05;100974.66;;;8.85;63.35
50103;BME280;35993;52.604;10.078;2023-04-28T06:34:33;100974.47;;;8.87;63.05
50103;BME280;35993;52.604;10.078;2023-04-28T06:37:00;100974.16;;;9.10;63.09
50103;BME280;35993;52.604;10.078;2023-04-28T06:39:26;100967.97;;;9.23;62.56
50103;BME280;35993;52.604;10.078;2023-04-28T06:41:55;100968.91;;;9.44;62.54
50103;BME280;35993;52.604;10.078;2023-04-28T06:44:26;100961.84;;;9.63;61.98
50103;BME280;35993;52.604;10.078;2023-04-28T06:46:52;100962.94;;;9.75;61.54
50103;BME280;35993;52.604;10.078;2023-04-28T06:49:19;100963.78;;;9.82;61.57
50103;BME280;35993;52.604;10.078;2023-04-28T06:51:47;100965.69;;;9.89;61.79
50103;BME280;35993;52.604;10.078;2023-04-28T06:54:13;100963.16;;;9.87;60.66
50103;BME280;35993;52.604;10.078;2023-04-28T06:56:42;100961.72;;;9.91;60.39
50103;BME280;35993;52.604;10.078;2023-04-28T06:59:09;100960.06;;;10.10;60.62
50103;BME280;35993;52.604;10.078;2023-04-28T07:01:36;100953.41;;;10.20;60.30
50103;BME280;35993;52.604;10.078;2023-04-28T07:04:02;100953.19;;;10.35;60.57
50103;BME280;35993;52.604;10.078;2023-04-28T07:06:29;100948.00;;;10.40;59.92
50103;BME280;35993;52.604;10.078;2023-04-28T07:08:56;100938.78;;;10.54;59.98
50103;BME280;35993;52.604;10.078;2023-04-28T07:11:22;100940.66;;;10.54;60.32
50103;BME280;35993;52.604;10.078;2023-04-28T07:13:48;100938.16;;;10.52;59.08
50103;BME280;35993;52.604;10.078;2023-04-28T07:16:17;100934.78;;;10.70;59.54
50103;BME280;35993;52.604;10.078;2023-04-28T07:18:43;100934.97;;;10.75;59.42
50103;BME280;35993;52.604;10.078;2023-04-28T07:21:10;100939.56;;;10.88;59.24
50103;BME280;35993;52.604;10.078;2023-04-28T07:23:38;100930.16;;;10.91;58.21
50103;BME280;35993;52.604;10.078;2023-04-28T07:26:05;100927.84;;;10.88;57.83
50103;BME280;35993;52.604;10.078;2023-04-28T07:28:33;100938.47;;;10.96;58.46
50103;BME280;35993;52.604;10.078;2023-04-28T07:30:59;100937.97;;;11.12;58.61
50103;BME280;35993;52.604;10.078;2023-04-28T07:33:24;100929.09;;;11.37;58.39
50103;BME280;35993;52.604;10.078;2023-04-28T07:35:50;100919.91;;;11.38;57.34
50103;BME280;35993;52.604;10.078;2023-04-28T07:38:17;100920.44;;;11.54;57.61
50103;BME280;35993;52.604;10.078;2023-04-28T07:40:45;100925.88;;;11.54;57.69
50103;BME280;35993;52.604;10.078;2023-04-28T07:43:10;100924.06;;;11.41;57.59
50103;BME280;35993;52.604;10.078;2023-04-28T07:45:39;100918.41;;;11.42;57.79
50103;BME280;35993;52.604;10.078;2023-04-28T07:48:05;100914.47;;;11.38;56.84
50103;BME280;35993;52.604;10.078;2023-04-28T07:50:33;100926.53;;;11.49;57.84
50103;BME280;35993;52.604;10.078;2023-04-28T07:52:59;100920.22;;;11.55;57.43
50103;BME280;35993;52.604;10.078;2023-04-28T07:55:25;100917.28;;;11.57;57.69
50103;BME280;35993;52.604;10.078;2023-04-28T07:57:51;100919.19;;;11.56;56.75
50103;BME280;35993;52.604;10.078;2023-04-28T08:00:17;100917.22;;;11.63;56.06
50103;BME280;35993;52.604;10.078;2023-04-28T08:02:43;100908.44;;;11.68;55.19
50103;BME280;35993;52.604;10.078;2023-04-28T08:05:09;100907.50;;;11.81;55.41
50103;BME280;35993;52.604;10.078;2023-04-28T08:07:36;100909.72;;;11.91;55.78
50103;BME280;35993;52.604;10.078;2023-04-28T08:10:03;100905.31;;;11.96;55.80
50103;BME280;35993;52.604;10.078;2023-04-28T08:12:29;100908.19;;;12.02;55.66
50103;BME280;35993;52.604;10.078;2023-04-28T08:14:56;100898.94;;;12.09;55.07
50103;BME280;35993;52.604;10.078;2023-04-28T08:17:22;100909.25;;;12.26;54.95
50103;BME280;35993;52.604;10.078;2023-04-28T08:19:47;100899.16;;;12.33;55.12
50103;BME280;35993;52.604;10.078;2023-04-28T08:22:13;100884.38;;;12.22;53.15
50103;BME280;35993;52.604;10.078;2023-04-28T08:24:39;100893.16;;;12.24;53.35
50103;BME280;35993;52.604;10.078;2023-04-28T08:27:05;100885.09;;;12.11;52.93
50103;BME280;35993;52.604;10.078;2023-04-28T08:29:31;100884.00;;;12.19;53.39
50103;BME280;35993;52.604;10.078;2023-04-28T08:31:57;100891.25;;;12.25;53.74
50103;BME280;35993;52.604;10.078;2023-04-28T08:34:23;100893.09;;;12.31;54.08
50103;BME280;35993;52.604;10.078;2023-04-28T08:36:50;100892.50;;;12.29;53.93
50103;BME280;35993;52.604;10.078;2023-04-28T08:39:15;100894.53;;;12.34;53.98
50103;BME280;35993;52.604;10.078;2023-04-28T08:41:41;100893.00;;;12.38;53.51
50103;BME280;35993;52.604;10.078;2023-04-28T08:44:08;100880.31;;;12.32;52.46
50103;BME280;35993;52.604;10.078;2023-04-28T08:46:35;100880.69;;;12.35;52.85
50103;BME280;35993;52.604;10.078;2023-04-28T08:49:05;100877.06;;;12.41;52.95
50103;BME280;35993;52.604;10.078;2023-04-28T08:51:34;100875.13;;;12.49;52.21
50103;BME280;35993;52.604;10.078;2023-04-28T08:54:03;100877.22;;;12.46;52.33
50103;BME280;35993;52.604;10.078;2023-04-28T08:56:32;100881.91;;;12.39;52.58
50103;BME280;35993;52.604;10.078;2023-04-28T08:59:02;100883.19;;;12.37;52.73
50103;BME280;35993;52.604;10.078;2023-04-28T09:01:31;100876.09;;;12.36;53.02
50103;BME280;35993;52.604;10.078;2023-04-28T09:04:00;100874.19;;;12.36;53.24
50103;BME280;35993;52.604;10.078;2023-04-28T09:06:31;100870.19;;;12.39;52.82
50103;BME280;35993;52.604;10.078;2023-04-28T09:09:17;100865.59;;;12.39;52.12
50103;BME280;35993;52.604;10.078;2023-04-28T09:11:56;100855.50;;;12.40;52.35
50103;BME280;35993;52.604;10.078;2023-04-28T09:14:30;100865.66;;;12.51;52.34
50103;BME280;35993;52.604;10.078;2023-04-28T09:16:57;100863.91;;;12.57;53.08
50103;BME280;35993;52.604;10.078;2023-04-28T09:19:23;100857.31;;;12.65;53.05
50103;BME280;35993;52.604;10.078;2023-04-28T09:21:56;100864.97;;;12.74;53.61
50103;BME280;35993;52.604;10.078;2023-04-28T09:24:32;100856.81;;;12.74;52.75
50103;BME280;35993;52.604;10.078;2023-04-28T09:27:01;100837.28;;;12.77;52.81
50103;BME280;35993;52.604;10.078;2023-04-28T09:29:28;100846.44;;;12.83;52.99
50103;BME280;35993;52.604;10.078;2023-04-28T09:32:11;100840.91;;;12.90;52.21
50103;BME280;35993;52.604;10.078;2023-04-28T09:34:53;100836.34;;;13.02;52.38
50103;BME280;35993;52.604;10.078;2023-04-28T09:37:28;100841.97;;;13.19;52.55
50103;BME280;35993;52.604;10.078;2023-04-28T09:40:02;100834.72;;;13.13;51.98
50103;BME280;35993;52.604;10.078;2023-04-28T09:42:42;100840.53;;;13.17;52.04
50103;BME280;35993;52.604;10.078;2023-04-28T09:45:09;100831.53;;;13.16;51.39
50103;BME280;35993;52.604;10.078;2023-04-28T09:47:36;100824.41;;;13.15;51.07
50103;BME280;35993;52.604;10.078;2023-04-28T09:50:04;100828.19;;;13.14;50.86
50103;BME280;35993;52.604;10.078;2023-04-28T09:52:32;100824.31;;;13.22;51.63
50103;BME280;35993;52.604;10.078;2023-04-28T09:55:01;100828.59;;;13.30;51.84
50103;BME280;35993;52.604;10.078;2023-04-28T09:57:29;100824.44;;;13.27;52.25
50103;BME280;35993;52.604;10.078;2023-04-28T09:59:57;100834.84;;;13.37;52.88
50103;BME280;35993;52.604;10.078;2023-04-28T10:02:23;100839.38;;;13.43;52.55
50103;BME280;35993;52.604;10.078;2023-04-28T10:04:49;100827.16;;;13.46;52.73
50103;BME280;35993;52.604;10.078;2023-04-28T10:07:17;100818.13;;;13.45;52.40
50103;BME280;35993;52.604;10.078;2023-04-28T10:09:44;100820.16;;;13.50;52.29
50103;BME280;35993;52.604;10.078;2023-04-28T10:12:23;100816.50;;;13.56;52.33
50103;BME280;35993;52.604;10.078;2023-04-28T10:14:49;100812.84;;;13.62;52.45
50103;BME280;35993;52.604;10.078;2023-04-28T10:17:19;100812.84;;;13.62;52.08
50103;BME280;35993;52.604;10.078;2023-04-28T10:19:47;100811.75;;;13.63;52.32
50103;BME280;35993;52.604;10.078;2023-04-28T10:22:41;100814.47;;;13.51;52.14
50103;BME280;35993;52.604;10.078;2023-04-28T10:27:44;100804.91;;;13.30;51.71
50103;BME280;35993;52.604;10.078;2023-04-28T10:30:12;100800.28;;;13.31;52.05
50103;BME280;35993;52.604;10.078;2023-04-28T10:32:38;100806.78;;;13.30;52.51
50103;BME280;35993;52.604;10.078;2023-04-28T10:38:09;100797.97;;;13.16;53.31
50103;BME280;35993;52.604;10.078;2023-04-28T10:40:35;100802.97;;;13.19;54.82
50103;BME280;35993;52.604;10.078;2023-04-28T10:43:02;100816.00;;;13.17;56.54
50103;BME280;35993;52.604;10.078;2023-04-28T10:58:43;100806.25;;;13.09;58.03
50103;BME280;35993;52.604;10.078;2023-04-28T11:03:52;100802.72;;;13.08;57.42
50103;BME280;35993;52.604;10.078;2023-04-28T11:12:02;100804.72;;;13.13;56.64
50103;BME280;35993;52.604;10.078;2023-04-28T11:16:55;100808.22;;;13.32;57.27
50103;BME280;35993;52.604;10.078;2023-04-28T11:19:27;100797.47;;;13.37;56.60
50103;BME280;35993;52.604;10.078;2023-04-28T11:21:55;100801.63;;;13.40;56.78
50103;BME280;35993;52.604;10.078;2023-04-28T11:24:25;100808.50;;;13.42;57.02
50103;BME280;35993;52.604;10.078;2023-04-28T11:26:53;100799.38;;;13.37;56.75
50103;BME280;35993;52.604;10.078;2023-04-28T11:29:30;100805.13;;;13.28;57.12
50103;BME280;35993;52.604;10.078;2023-04-28T11:31:56;100797.44;;;13.25;57.19
50103;BME280;35993;52.604;10.078;2023-04-28T11:34:23;100788.44;;;13.25;57.30
50103;BME280;35993;52.604;10.078;2023-04-28T11:36:49;100789.38;;;13.31;57.67
50103;BME280;35993;52.604;10.078;2023-04-28T11:39:14;100795.97;;;13.41;57.52
50103;BME280;35993;52.604;10.078;2023-04-28T11:41:42;100795.06;;;13.59;57.81
50103;BME280;35993;52.604;10.078;2023-04-28T11:44:19;100789.84;;;13.70;56.80
50103;BME280;35993;52.604;10.078;2023-04-28T11:46:49;100786.38;;;13.74;56.11
50103;BME280;35993;52.604;10.078;2023-04-28T11:49:17;100788.91;;;13.88;56.31
50103;BME280;35993;52.604;10.078;2023-04-28T11:51:43;100778.66;;;13.95;56.14
50103;BME280;35993;52.604;10.078;2023-04-28T11:54:11;100782.47;;;14.06;56.15
50103;BME280;35993;52.604;10.078;2023-04-28T11:56:40;100779.72;;;14.30;55.79
50103;BME280;35993;52.604;10.078;2023-04-28T11:59:08;100782.47;;;14.30;55.47
50103;BME280;35993;52.604;10.078;2023-04-28T12:01:43;100772.97;;;14.32;54.97
50103;BME280;35993;52.604;10.078;2023-04-28T12:04:09;100767.72;;;14.31;54.79
50103;BME280;35993;52.604;10.078;2023-04-28T12:06:35;100772.97;;;14.32;55.05
50103;BME280;35993;52.604;10.078;2023-04-28T12:09:14;100762.03;;;14.20;54.06
50103;BME280;35993;52.604;10.078;2023-04-28T12:11:54;100770.09;;;14.27;54.93
50103;BME280;35993;52.604;10.078;2023-04-28T12:14:22;100765.94;;;14.24;54.53
50103;BME280;35993;52.604;10.078;2023-04-28T12:16:48;100765.84;;;14.31;54.79
50103;BME280;35993;52.604;10.078;2023-04-28T12:19:15;100755.59;;;14.38;54.13
50103;BME280;35993;52.604;10.078;2023-04-28T12:21:42;100760.94;;;14.33;53.90
50103;BME280;35993;52.604;10.078;2023-04-28T12:24:20;100754.78;;;14.38;53.79
50103;BME280;35993;52.604;10.078;2023-04-28T12:26:47;100755.84;;;14.37;53.50
50103;BME280;35993;52.604;10.078;2023-04-28T12:29:37;100755.69;;;14.43;54.25
50103;BME280;35993;52.604;10.078;2023-04-28T12:32:08;100755.94;;;14.42;53.97
50103;BME280;35993;52.604;10.078;2023-04-28T12:34:35;100748.59;;;14.42;53.96
50103;BME280;35993;52.604;10.078;2023-04-28T12:37:01;100737.66;;;14.42;54.32
50103;BME280;35993;52.604;10.078;2023-04-28T12:39:28;100735.84;;;14.48;54.98
50103;BME280;35993;52.604;10.078;2023-04-28T12:41:53;100729.91;;;14.51;55.20
50103;BME280;35993;52.604;10.078;2023-04-28T12:44:24;100731.97;;;14.44;55.02
50103;BME280;35993;52.604;10.078;2023-04-28T12:46:50;100729.69;;;14.41;54.99
50103;BME280;35993;52.604;10.078;2023-04-28T12:49:16;100730.03;;;14.45;54.88
50103;BME280;35993;52.604;10.078;2023-04-28T12:51:42;100724.22;;;14.41;54.47
50103;BME280;35993;52.604;10.078;2023-04-28T12:54:07;100726.97;;;14.41;54.40
50103;BME280;35993;52.604;10.078;2023-04-28T12:56:33;100720.69;;;14.40;54.80
50103;BME280;35993;52.604;10.078;2023-04-28T12:58:59;100721.50;;;14.41;55.10
50103;BME280;35993;52.604;10.078;2023-04-28T13:01:28;100718.22;;;14.27;54.38
50103;BME280;35993;52.604;10.078;2023-04-28T13:03:54;100708.94;;;14.28;54.74
50103;BME280;35993;52.604;10.078;2023-04-28T13:06:20;100706.31;;;14.33;54.96
50103;BME280;35993;52.604;10.078;2023-04-28T13:08:45;100701.06;;;14.43;54.57
50103;BME280;35993;52.604;10.078;2023-04-28T13:11:11;100704.16;;;14.47;54.52
50103;BME280;35993;52.604;10.078;2023-04-28T13:13:37;100712.94;;;14.49;55.11
50103;BME280;35993;52.604;10.078;2023-04-28T13:16:03;100700.84;;;14.45;55.00
50103;BME280;35993;52.604;10.078;2023-04-28T13:18:29;100707.84;;;14.41;55.20
50103;BME280;35993;52.604;10.078;2023-04-28T13:20:56;100708.34;;;14.38;55.10